createdAt,value
2022-08-24T00:01:14.765Z,20.03
2022-08-24T00:05:19.056Z,20.00
2022-08-24T00:09:22.453Z,19.98
2022-08-24T00:13:29.430Z,19.96
2022-08-24T00:17:36.147Z,19.93
2022-08-24T00:21:40.074Z,19.87
2022-08-24T00:25:43.202Z,19.88
2022-08-24T00:29:48.193Z,19.89
2022-08-24T00:33:52.029Z,19.90
2022-08-24T00:37:56.455Z,19.92
2022-08-24T00:42:01.013Z,19.90
2022-08-24T00:46:16.416Z,19.92
2022-08-24T00:50:24.679Z,19.90
2022-08-24T00:54:30.963Z,19.87
2022-08-24T00:58:39.582Z,19.86
2022-08-24T01:03:04.755Z,19.79
2022-08-24T01:07:08.682Z,19.75
2022-08-24T01:11:15.385Z,19.79
2022-08-24T01:15:20.975Z,19.70
2022-08-24T01:19:33.997Z,19.75
2022-08-24T01:23:42.078Z,19.73
2022-08-24T01:27:46.664Z,19.69
2022-08-24T01:31:50.777Z,19.67
2022-08-24T01:35:59.956Z,19.62
2022-08-24T01:40:08.506Z,19.57
2022-08-24T01:44:12.788Z,19.51
2022-08-24T01:48:22.679Z,19.42
2022-08-24T01:52:43.444Z,19.29
2022-08-24T01:56:53.673Z,19.22
2022-08-24T02:00:57.740Z,19.12
2022-08-24T02:05:01.637Z,19.03
2022-08-24T02:09:06.228Z,18.97
2022-08-24T02:13:11.024Z,18.93
2022-08-24T02:17:14.829Z,18.89
2022-08-24T02:21:18.759Z,18.79
2022-08-24T02:25:22.467Z,18.81
2022-08-24T02:29:27.963Z,18.77
2022-08-24T02:33:31.631Z,18.77
2022-08-24T02:37:34.957Z,18.76
2022-08-24T02:41:46.790Z,18.76
2022-08-24T02:45:52.322Z,18.75
2022-08-24T02:49:55.557Z,18.82
2022-08-24T02:54:00.138Z,18.83
2022-08-24T02:58:04.001Z,18.89
2022-08-24T03:02:09.088Z,18.93
2022-08-24T03:06:12.806Z,18.94
2022-08-24T03:10:17.361Z,18.94
2022-08-24T03:14:21.248Z,19.01
2022-08-24T03:18:27.922Z,19.05
2022-08-24T03:22:31.049Z,19.08
2022-08-24T03:26:34.798Z,19.11
2022-08-24T03:30:39.961Z,19.14
2022-08-24T03:34:47.109Z,19.19
2022-08-24T03:38:50.725Z,19.22
2022-08-24T03:42:55.509Z,19.26
2022-08-24T03:47:00.090Z,19.28
2022-08-24T03:51:05.332Z,19.31
2022-08-24T03:55:10.738Z,19.32
2022-08-24T03:59:17.727Z,19.25
2022-08-24T04:03:23.444Z,19.32
2022-08-24T04:07:30.320Z,19.33
2022-08-24T04:11:39.460Z,19.33
2022-08-24T04:15:44.977Z,19.37
2022-08-24T04:19:59.100Z,19.39
2022-08-24T04:24:04.890Z,19.40
2022-08-24T04:28:08.495Z,19.41
2022-08-24T04:32:12.156Z,19.47
2022-08-24T04:36:15.678Z,19.51
2022-08-24T04:40:20.958Z,19.53
2022-08-24T04:44:24.062Z,19.57
2022-08-24T04:48:27.612Z,19.62
2022-08-24T04:52:31.235Z,19.67
2022-08-24T04:56:36.765Z,19.72
2022-08-24T05:00:40.691Z,19.75
2022-08-24T05:04:44.491Z,19.75
2022-08-24T05:08:48.707Z,19.85
2022-08-24T05:12:53.716Z,19.93
2022-08-24T05:16:57.262Z,20.00
2022-08-24T05:21:00.836Z,20.09
2022-08-24T05:25:04.550Z,20.19
2022-08-24T05:29:09.059Z,20.25
2022-08-24T05:33:13.440Z,20.32
2022-08-24T05:37:16.889Z,20.36
2022-08-24T05:41:21.617Z,20.42
2022-08-24T05:45:26.139Z,20.52
2022-08-24T05:49:30.035Z,20.64
2022-08-24T05:53:34.398Z,20.80
2022-08-24T05:57:38.286Z,20.99
2022-08-24T06:01:45.584Z,21.21
2022-08-24T06:05:49.395Z,21.41
2022-08-24T06:09:54.210Z,21.64
2022-08-24T06:14:01.838Z,21.90
2022-08-24T06:18:07.621Z,22.17
2022-08-24T06:22:12.192Z,22.42
2022-08-24T06:26:34.018Z,22.64
2022-08-24T06:30:37.719Z,22.84
2022-08-24T06:34:42.778Z,22.97
2022-08-24T06:38:46.865Z,23.02
2022-08-24T06:42:50.129Z,23.00
2022-08-24T06:46:53.882Z,22.95
2022-08-24T06:51:00.138Z,22.93
2022-08-24T06:55:03.836Z,22.92
2022-08-24T06:59:08.935Z,23.00
2022-08-24T07:03:12.688Z,23.08
2022-08-24T07:07:18.349Z,23.16
2022-08-24T07:11:22.580Z,23.20
2022-08-24T07:15:26.740Z,23.25
2022-08-24T07:19:30.947Z,23.30
2022-08-24T07:23:41.937Z,23.35
2022-08-24T07:27:45.934Z,23.41
2022-08-24T07:31:50.105Z,23.61
2022-08-24T07:35:56.257Z,24.06
2022-08-24T07:40:01.585Z,24.69
2022-08-24T07:44:05.161Z,25.35
2022-08-24T07:48:10.592Z,26.02
2022-08-24T07:52:17.403Z,26.69
2022-08-24T07:56:22.824Z,27.31
2022-08-24T08:00:27.649Z,27.94
2022-08-24T08:04:32.730Z,28.48
2022-08-24T08:08:39.513Z,28.86
2022-08-24T08:12:44.207Z,28.99
2022-08-24T08:16:48.030Z,28.96
2022-08-24T08:20:51.867Z,28.95
2022-08-24T08:24:54.436Z,29.09
2022-08-24T08:28:58.921Z,29.32
2022-08-24T08:33:03.342Z,29.60
2022-08-24T08:37:07.949Z,29.95
2022-08-24T08:41:43.027Z,30.29
2022-08-24T08:46:09.219Z,30.57
2022-08-24T08:50:18.517Z,30.72
2022-08-24T08:54:34.112Z,30.84
2022-08-24T08:58:59.417Z,30.93
2022-08-24T09:03:18.920Z,30.87
2022-08-24T09:07:32.763Z,30.77
2022-08-24T09:11:50.478Z,30.78
2022-08-24T09:16:10.620Z,30.76
2022-08-24T09:20:26.867Z,30.58
2022-08-24T09:24:53.267Z,30.29
2022-08-24T09:29:11.306Z,30.03
2022-08-24T09:33:22.398Z,29.83
2022-08-24T09:37:55.756Z,29.75
2022-08-24T09:42:44.005Z,29.84
2022-08-24T09:47:23.652Z,30.05
2022-08-24T09:52:03.399Z,30.35
2022-08-24T09:56:16.258Z,30.52
2022-08-24T10:00:26.050Z,30.77
2022-08-24T10:04:38.663Z,30.98
2022-08-24T10:08:56.694Z,31.24
2022-08-24T10:13:15.462Z,31.60
2022-08-24T10:17:23.601Z,31.95
2022-08-24T10:21:42.095Z,32.31
2022-08-24T10:25:57.767Z,32.53
2022-08-24T10:30:27.826Z,32.65
2022-08-24T10:34:49.101Z,32.71
2022-08-24T10:39:19.285Z,32.79
2022-08-24T10:43:48.980Z,32.99
2022-08-24T10:48:18.458Z,33.18
2022-08-24T10:53:18.893Z,33.31
2022-08-24T10:57:32.482Z,33.32
2022-08-24T11:01:38.114Z,33.32
2022-08-24T11:05:49.714Z,33.50
2022-08-24T11:09:56.434Z,33.78
2022-08-24T11:14:05.033Z,34.17
2022-08-24T11:18:12.860Z,34.38
2022-08-24T11:22:41.614Z,34.51
2022-08-24T11:30:49.836Z,34.25
2022-08-24T11:34:53.000Z,33.99
2022-08-24T11:43:36.073Z,33.67
2022-08-24T11:48:00.254Z,33.52
2022-08-24T11:52:13.061Z,33.32
2022-08-24T11:56:25.522Z,33.13
2022-08-24T12:00:46.023Z,32.88
2022-08-24T12:04:59.490Z,32.57
2022-08-24T12:09:13.337Z,32.35
2022-08-24T12:13:31.950Z,32.28
2022-08-24T12:17:42.219Z,32.42
2022-08-24T12:21:51.098Z,32.63
2022-08-24T12:26:04.577Z,32.79
2022-08-24T12:30:14.381Z,32.96
2022-08-24T12:34:27.684Z,33.04
2022-08-24T12:38:36.036Z,33.06
2022-08-24T12:42:51.793Z,33.02
2022-08-24T12:46:57.210Z,32.87
2022-08-24T12:51:18.969Z,32.66
2022-08-24T12:55:52.618Z,32.44
2022-08-24T12:59:58.299Z,32.25
2022-08-24T13:04:32.521Z,32.18
2022-08-24T13:08:41.268Z,32.07
2022-08-24T13:13:14.717Z,31.92
2022-08-24T13:17:20.545Z,31.73
2022-08-24T13:21:45.220Z,31.65
2022-08-24T13:25:58.274Z,31.64
2022-08-24T13:30:09.165Z,31.71
2022-08-24T13:34:40.659Z,31.73
2022-08-24T13:39:00.050Z,31.73
2022-08-24T13:43:17.817Z,31.72
2022-08-24T13:47:26.435Z,31.72
2022-08-24T13:51:43.916Z,31.75
2022-08-24T13:55:52.692Z,31.73
2022-08-24T14:00:32.850Z,31.74
2022-08-24T14:04:47.799Z,31.85
2022-08-24T14:09:01.178Z,31.92
2022-08-24T14:13:16.606Z,31.92
2022-08-24T14:17:53.824Z,31.93
2022-08-24T14:22:08.031Z,31.95
2022-08-24T14:26:52.754Z,31.97
2022-08-24T14:31:21.901Z,31.97
2022-08-24T14:35:39.871Z,32.05
2022-08-24T14:39:53.787Z,32.21
2022-08-24T14:44:47.852Z,32.44
2022-08-24T14:49:04.407Z,32.66
2022-08-24T14:53:34.662Z,32.80
2022-08-24T14:58:03.108Z,32.96
2022-08-24T15:02:39.414Z,33.13
2022-08-24T15:06:48.390Z,33.21
2022-08-24T15:10:59.370Z,33.30
2022-08-24T15:15:11.017Z,33.42
2022-08-24T15:19:27.466Z,33.55
2022-08-24T15:23:53.454Z,33.62
2022-08-24T15:28:01.472Z,33.55
2022-08-24T15:32:09.144Z,33.31
2022-08-24T15:36:16.053Z,32.92
2022-08-24T15:40:27.436Z,32.40
2022-08-24T15:44:33.721Z,31.87
2022-08-24T15:48:38.102Z,31.37
2022-08-24T15:52:46.368Z,30.94
2022-08-24T15:56:52.044Z,30.53
2022-08-24T16:01:16.074Z,30.25
2022-08-24T16:05:21.979Z,30.12
2022-08-24T16:09:38.210Z,30.16
2022-08-24T16:13:44.606Z,30.26
2022-08-24T16:17:51.827Z,30.35
2022-08-24T16:22:01.081Z,30.47
2022-08-24T16:26:33.389Z,30.59
2022-08-24T16:30:49.364Z,30.67
2022-08-24T16:34:58.163Z,30.69
2022-08-24T16:39:01.561Z,30.68
2022-08-24T16:43:05.410Z,30.64
2022-08-24T16:47:09.166Z,30.60
2022-08-24T16:51:14.217Z,30.52
2022-08-24T16:55:17.562Z,30.42
2022-08-24T16:59:26.996Z,30.30
2022-08-24T17:03:31.078Z,30.13
2022-08-24T17:07:36.176Z,29.97
2022-08-24T17:11:39.269Z,29.77
2022-08-24T17:15:43.029Z,29.57
2022-08-24T17:19:47.652Z,29.34
2022-08-24T17:23:53.000Z,29.11
2022-08-24T17:32:00.968Z,28.58
2022-08-24T17:36:07.554Z,28.31
2022-08-24T17:40:23.913Z,28.01
2022-08-24T17:44:30.868Z,27.72
2022-08-24T17:48:34.909Z,27.41
2022-08-24T17:52:38.925Z,27.10
2022-08-24T17:56:45.739Z,26.79
2022-08-24T18:00:49.264Z,26.49
2022-08-24T18:04:52.894Z,26.20
2022-08-24T18:08:58.430Z,25.91
2022-08-24T18:13:04.541Z,25.66
2022-08-24T18:17:11.923Z,25.37
2022-08-24T18:21:15.543Z,25.12
2022-08-24T18:25:20.777Z,24.86
2022-08-24T18:29:25.520Z,24.64
2022-08-24T18:33:29.238Z,24.44
2022-08-24T18:37:32.484Z,24.26
2022-08-24T18:41:41.389Z,24.12
2022-08-24T18:45:46.047Z,23.97
2022-08-24T18:49:49.356Z,23.85
2022-08-24T18:53:59.219Z,23.75
2022-08-24T18:58:02.942Z,23.65
2022-08-24T19:02:29.646Z,23.55
2022-08-24T19:06:32.893Z,23.41
2022-08-24T19:10:38.671Z,23.30
2022-08-24T19:14:46.385Z,23.21
2022-08-24T19:18:52.832Z,23.13
2022-08-24T19:22:57.965Z,23.05
2022-08-24T19:27:02.444Z,22.97
2022-08-24T19:31:10.378Z,22.92
2022-08-24T19:35:16.485Z,22.88
2022-08-24T19:39:22.830Z,22.85
2022-08-24T19:43:35.707Z,22.82
2022-08-24T19:47:39.322Z,22.79
2022-08-24T19:51:44.375Z,22.75
2022-08-24T19:55:50.342Z,22.69
2022-08-24T19:59:55.062Z,22.63
2022-08-24T20:03:59.026Z,22.55
2022-08-24T20:08:04.993Z,22.47
2022-08-24T20:12:09.691Z,22.38
2022-08-24T20:16:17.062Z,22.32
2022-08-24T20:20:22.956Z,22.29
2022-08-24T20:24:27.707Z,22.28
2022-08-24T20:28:38.214Z,22.29
2022-08-24T20:32:42.295Z,22.28
2022-08-24T20:36:51.265Z,22.28
2022-08-24T20:40:56.097Z,22.27
2022-08-24T20:45:00.688Z,22.25
2022-08-24T20:49:04.539Z,22.21
2022-08-24T20:53:09.865Z,22.16
2022-08-24T21:01:44.407Z,22.01
2022-08-24T21:05:48.678Z,21.95
2022-08-24T21:09:52.405Z,21.86
2022-08-24T21:13:57.820Z,21.81
2022-08-24T21:18:02.203Z,21.73
2022-08-24T21:22:06.177Z,21.67
2022-08-24T21:26:12.065Z,21.61
2022-08-24T21:30:21.661Z,21.56
2022-08-24T21:34:43.310Z,21.47
2022-08-24T21:38:46.901Z,21.37
2022-08-24T21:42:50.938Z,21.30
2022-08-24T21:46:56.981Z,21.23
2022-08-24T21:51:00.772Z,21.15
2022-08-24T21:55:04.429Z,21.10
2022-08-24T21:59:08.514Z,21.05
2022-08-24T22:03:13.990Z,21.01
2022-08-24T22:07:17.361Z,20.98
2022-08-24T22:11:25.123Z,20.94
2022-08-24T22:15:28.737Z,20.92
2022-08-24T22:19:33.792Z,20.90
2022-08-24T22:23:39.065Z,20.85
2022-08-24T22:27:42.963Z,20.82
2022-08-24T22:31:47.437Z,20.78
2022-08-24T22:35:52.786Z,20.73
2022-08-24T22:39:56.246Z,20.65
2022-08-24T22:44:17.463Z,20.57
2022-08-24T22:48:20.528Z,20.46
2022-08-24T22:52:25.562Z,20.38
2022-08-24T22:56:31.023Z,20.32
2022-08-24T23:00:36.066Z,20.26
2022-08-24T23:04:41.470Z,20.21
2022-08-24T23:08:46.675Z,20.16
2022-08-24T23:12:50.326Z,20.13
2022-08-24T23:16:54.106Z,20.12
2022-08-24T23:20:56.978Z,20.13
2022-08-24T23:25:01.922Z,20.14
2022-08-24T23:29:05.705Z,20.14
2022-08-24T23:33:09.879Z,20.14
2022-08-24T23:37:13.620Z,20.11
2022-08-24T23:41:21.123Z,20.10
2022-08-24T23:45:28.353Z,20.07
2022-08-24T23:49:34.371Z,20.08
2022-08-24T23:53:38.772Z,20.07
2022-08-24T23:57:48.147Z,20.07
